LSGGLFST

Guest
Details From LSGG - Geneva
To LFST - Entzheim
Flight Number -
Tags generated
Created
Modified
Stats Distance 151 nm / 280 km
Max Altitude 15,000 ft / 4,572 m
Waypoints 3
Social Downloads 38
Likes 0
Share

Download

Looking for another format? Having issues loading an existing format? Contact us
Advertisement - Login to hide

Notes

Basic altitude profile: - Ascent Rate: 2500ft/min - Ascent Speed: 250kts - Cruise Altitude: 35000ft - Cruise Speed: 420kts - Descent Rate: 1500ft/min - Descent Speed: 250kts Options: - Use NATs: yes - Use PACOTS: yes - Use low airways: yes - Use high airways: yes

Route

LSGG FLORY LFST

ID Type Via Altitude (ft/m) Position (lat/lon) Dist (leg/tot) Name
O LSGG APT - 0 / 0 46.23775 / 6.10617 - / 0 nm Geneva
FLORY FIX - 15,000 / 4,572 46.90861 / 6.58500 44 / 44 nm
O LFST APT - 0 / 0 48.53833 / 7.62826 106 / 151 nm Entzheim

Altitude Profile

Advertisement - Login to hide

LSGG

Details ICAO LSGG (GVA)
Name Geneva
Region Switzerland
Timezone Europe/Zurich (UTC+1.0)
Stats Elevation 1,411 ft / 430 m (AMSL)
Location 46.238100° 6.109010°
Runways 1
Magnetic Variation 2.487° E

METAR

LSGG 271920Z 03012KT 9999 BKN042 10/03 Q1011 NOSIG

Decode

TAF

TAF TAF LSGG 271725Z 2718/2824 05014KT 9999 BKN040 TX11/2815Z TN05/2805Z

Decode

Departure Runways

ID Width Length Bearing (true/mag) Surface Threshold Overrun Markings Lighting
04 164 ft / 50 m 12,806 ft / 3,903 m 45.42° / 42.94° CONCRETE 1,076 ft / 328 m 0 ft / 0 m PREC-APP CENTERLINE EDGE THRESHOLD CALVERT TDZ REIL-OMNI
22 164 ft / 50 m 12,806 ft / 3,903 m 225.45° / 222.96° CONCRETE 0 ft / 0 m 0 ft / 0 m PREC-APP CENTERLINE EDGE THRESHOLD CALVERT-ILS TDZ REIL-OMNI

LFST

Details ICAO LFST (SXB)
Name Entzheim
Region France
Timezone Europe/Paris (UTC+1.0)
Stats Elevation 504 ft / 154 m (AMSL)
Location 48.538300° 7.628260°
Runways 1
Magnetic Variation 2.885° E

METAR

LFST 271930Z AUTO 34006KT 9999 FEW037 BKN070 OVC084 08/05 Q1015 NOSIG

Decode

TAF

TAF LFST 271700Z 2718/2818 36006KT 9999 BKN030 PROB40 TEMPO 2804/2811 BKN009

Decode

Destination Runways

ID Width Length Bearing (true/mag) Surface Threshold Overrun Markings Lighting
05 148 ft / 45 m 7,899 ft / 2,408 m 48.60° / 45.72° ASPHALT 0 ft / 0 m 860 ft / 262 m UK-PREC-APP CENTERLINE EDGE THRESHOLD REIL-OMNI
23 148 ft / 45 m 7,899 ft / 2,408 m 228.62° / 225.74° ASPHALT 0 ft / 0 m 902 ft / 275 m UK-PREC-APP CENTERLINE EDGE THRESHOLD CALVERT-ILS TDZ REIL-OMNI

Approach Navaids

Runway Type Ident Frequency Range Bearing (true/mag) Slope Elevation
05 LOC-ILS ENT 108.55 MHz 18 nm / 33 km 48.63° / 45.75 ° - 499 ft / 152 m (AMSL)
05 GS ENT 108.55 MHz 10 nm / 19 km 49.22° / 46.34 ° 3.50° 561 ft / 171 m (AMSL)
05 DME ENT 108.55 MHz 18 nm / 33 km - - 504 ft / 154 m (AMSL)
23 DME STZ 109.55 MHz 18 nm / 33 km - - 504 ft / 154 m (AMSL)
23 GS STZ 109.55 MHz 10 nm / 19 km 229.22° / 226.34 ° 3.00° 542 ft / 165 m (AMSL)
23 LOC-ILS STZ 109.55 MHz 18 nm / 33 km 228.59° / 225.71 ° - 515 ft / 157 m (AMSL)

Popular Alternatives